sensor_id;sensor_type;location;lat;lon;timestamp;pressure;altitude;pressure_sealevel;temperature;humidity
32875;BME280;40468;42.128;24.750;2022-08-21T00:01:28;99022.50;;;21.69;81.85
32875;BME280;40468;42.128;24.750;2022-08-21T00:03:01;99031.13;;;21.71;81.74
32875;BME280;40468;42.128;24.750;2022-08-21T00:04:32;99042.56;;;21.72;81.59
32875;BME280;40468;42.128;24.750;2022-08-21T00:06:03;99043.06;;;21.75;80.90
32875;BME280;40468;42.128;24.750;2022-08-21T00:07:35;99041.22;;;21.76;81.45
32875;BME280;40468;42.128;24.750;2022-08-21T00:09:07;99040.91;;;21.79;80.44
32875;BME280;40468;42.128;24.750;2022-08-21T00:10:40;99038.94;;;21.81;80.19
32875;BME280;40468;42.128;24.750;2022-08-21T00:12:12;99032.63;;;21.82;79.87
32875;BME280;40468;42.128;24.750;2022-08-21T00:13:44;99026.19;;;21.85;79.71
32875;BME280;40468;42.128;24.750;2022-08-21T00:15:17;99022.41;;;21.87;79.40
32875;BME280;40468;42.128;24.750;2022-08-21T00:16:48;99025.06;;;21.87;80.21
32875;BME280;40468;42.128;24.750;2022-08-21T00:18:20;99015.09;;;21.81;79.98
32875;BME280;40468;42.128;24.750;2022-08-21T00:19:52;99010.78;;;21.80;79.80
32875;BME280;40468;42.128;24.750;2022-08-21T00:21:23;99006.63;;;21.77;79.44
32875;BME280;40468;42.128;24.750;2022-08-21T00:22:55;99019.34;;;21.74;79.42
32875;BME280;40468;42.128;24.750;2022-08-21T00:24:27;99014.53;;;21.69;79.34
32875;BME280;40468;42.128;24.750;2022-08-21T00:26:00;99009.94;;;21.71;79.18
32875;BME280;40468;42.128;24.750;2022-08-21T00:27:32;99013.22;;;21.73;78.82
32875;BME280;40468;42.128;24.750;2022-08-21T00:29:02;99011.25;;;21.75;78.95
32875;BME280;40468;42.128;24.750;2022-08-21T00:30:34;99004.81;;;21.78;78.80
32875;BME280;40468;42.128;24.750;2022-08-21T00:32:05;99007.13;;;21.81;78.34
32875;BME280;40468;42.128;24.750;2022-08-21T00:33:37;98997.88;;;21.85;78.10
32875;BME280;40468;42.128;24.750;2022-08-21T00:35:10;99004.66;;;21.88;77.74
32875;BME280;40468;42.128;24.750;2022-08-21T00:36:42;99011.31;;;21.92;77.76
32875;BME280;40468;42.128;24.750;2022-08-21T00:38:14;99012.78;;;21.94;77.75
32875;BME280;40468;42.128;24.750;2022-08-21T00:39:46;99011.81;;;21.95;77.43
32875;BME280;40468;42.128;24.750;2022-08-21T00:41:18;99003.56;;;21.98;77.09
32875;BME280;40468;42.128;24.750;2022-08-21T00:42:50;98995.28;;;22.01;77.86
32875;BME280;40468;42.128;24.750;2022-08-21T00:44:22;98982.16;;;22.00;78.81
32875;BME280;40468;42.128;24.750;2022-08-21T00:45:53;98976.00;;;21.91;78.95
32875;BME280;40468;42.128;24.750;2022-08-21T00:47:25;98972.50;;;21.83;79.75
32875;BME280;40468;42.128;24.750;2022-08-21T00:48:57;98977.81;;;21.83;79.54
32875;BME280;40468;42.128;24.750;2022-08-21T00:50:28;98987.25;;;21.85;78.75
32875;BME280;40468;42.128;24.750;2022-08-21T00:52:03;98990.59;;;21.87;78.21
32875;BME280;40468;42.128;24.750;2022-08-21T00:53:35;98994.75;;;21.90;78.84
32875;BME280;40468;42.128;24.750;2022-08-21T00:55:07;98996.41;;;21.91;78.58
32875;BME280;40468;42.128;24.750;2022-08-21T00:56:41;98994.25;;;21.94;78.43
32875;BME280;40468;42.128;24.750;2022-08-21T00:58:13;98992.13;;;21.98;78.19
32875;BME280;40468;42.128;24.750;2022-08-21T00:59:46;98992.78;;;22.00;77.59
32875;BME280;40468;42.128;24.750;2022-08-21T01:01:19;98999.91;;;21.99;76.88
32875;BME280;40468;42.128;24.750;2022-08-21T01:02:51;98996.41;;;21.99;76.61
32875;BME280;40468;42.128;24.750;2022-08-21T01:04:22;98996.56;;;21.97;76.51
32875;BME280;40468;42.128;24.750;2022-08-21T01:05:53;98995.75;;;21.97;76.28
32875;BME280;40468;42.128;24.750;2022-08-21T01:07:25;98994.91;;;21.96;76.38
32875;BME280;40468;42.128;24.750;2022-08-21T01:08:57;98992.28;;;21.96;76.03
32875;BME280;40468;42.128;24.750;2022-08-21T01:10:29;98985.00;;;21.98;76.12
32875;BME280;40468;42.128;24.750;2022-08-21T01:12:02;98980.34;;;22.00;76.23
32875;BME280;40468;42.128;24.750;2022-08-21T01:13:35;98961.78;;;21.92;76.36
32875;BME280;40468;42.128;24.750;2022-08-21T01:15:09;98970.06;;;21.97;77.01
32875;BME280;40468;42.128;24.750;2022-08-21T01:16:41;98970.38;;;21.94;76.97
32875;BME280;40468;42.128;24.750;2022-08-21T01:18:15;98968.41;;;21.96;76.62
32875;BME280;40468;42.128;24.750;2022-08-21T01:19:47;98969.09;;;21.98;76.50
32875;BME280;40468;42.128;24.750;2022-08-21T01:21:21;98964.28;;;22.02;76.30
32875;BME280;40468;42.128;24.750;2022-08-21T01:22:53;98957.84;;;22.04;76.03
32875;BME280;40468;42.128;24.750;2022-08-21T01:24:24;98963.81;;;22.07;75.65
32875;BME280;40468;42.128;24.750;2022-08-21T01:25:55;98965.59;;;22.06;75.54
32875;BME280;40468;42.128;24.750;2022-08-21T01:27:27;98967.44;;;22.06;75.63
32875;BME280;40468;42.128;24.750;2022-08-21T01:29:00;98966.59;;;22.05;75.67
32875;BME280;40468;42.128;24.750;2022-08-21T01:30:31;98958.50;;;22.07;76.68
32875;BME280;40468;42.128;24.750;2022-08-21T01:32:06;98944.56;;;22.04;77.10
32875;BME280;40468;42.128;24.750;2022-08-21T01:33:38;98937.91;;;22.00;77.35
32875;BME280;40468;42.128;24.750;2022-08-21T01:35:10;98937.59;;;21.95;77.58
32875;BME280;40468;42.128;24.750;2022-08-21T01:36:44;98949.19;;;21.86;79.06
32875;BME280;40468;42.128;24.750;2022-08-21T01:38:16;98951.13;;;21.76;79.63
32875;BME280;40468;42.128;24.750;2022-08-21T01:39:48;98945.47;;;21.71;79.77
32875;BME280;40468;42.128;24.750;2022-08-21T01:41:19;98945.16;;;21.66;79.97
32875;BME280;40468;42.128;24.750;2022-08-21T01:42:51;98947.44;;;21.61;80.39
32875;BME280;40468;42.128;24.750;2022-08-21T01:44:23;98950.56;;;21.56;80.34
32875;BME280;40468;42.128;24.750;2022-08-21T01:45:55;98947.72;;;21.49;81.35
32875;BME280;40468;42.128;24.750;2022-08-21T01:47:27;98947.38;;;21.44;81.55
32875;BME280;40468;42.128;24.750;2022-08-21T01:48:58;98952.03;;;21.42;81.48
32875;BME280;40468;42.128;24.750;2022-08-21T01:50:30;98962.41;;;21.35;81.53
32875;BME280;40468;42.128;24.750;2022-08-21T01:52:04;98972.94;;;21.27;82.25
32875;BME280;40468;42.128;24.750;2022-08-21T01:53:36;98980.66;;;21.21;82.58
32875;BME280;40468;42.128;24.750;2022-08-21T01:55:08;98976.69;;;21.17;83.48
32875;BME280;40468;42.128;24.750;2022-08-21T01:56:40;98985.25;;;21.10;83.27
32875;BME280;40468;42.128;24.750;2022-08-21T01:58:12;99004.41;;;21.04;83.47
32875;BME280;40468;42.128;24.750;2022-08-21T01:59:44;99018.25;;;20.98;83.83
32875;BME280;40468;42.128;24.750;2022-08-21T02:01:14;99018.72;;;20.94;84.01
32875;BME280;40468;42.128;24.750;2022-08-21T02:02:46;99025.00;;;20.93;84.49
32875;BME280;40468;42.128;24.750;2022-08-21T02:04:18;99030.75;;;20.88;84.72
32875;BME280;40468;42.128;24.750;2022-08-21T02:05:49;99032.56;;;20.87;84.81
32875;BME280;40468;42.128;24.750;2022-08-21T02:07:22;99030.91;;;20.86;84.81
32875;BME280;40468;42.128;24.750;2022-08-21T02:08:54;99034.06;;;20.90;84.34
32875;BME280;40468;42.128;24.750;2022-08-21T02:10:26;99024.50;;;20.89;84.28
32875;BME280;40468;42.128;24.750;2022-08-21T02:11:58;99022.50;;;20.91;84.00
32875;BME280;40468;42.128;24.750;2022-08-21T02:13:29;99020.09;;;20.98;83.45
32875;BME280;40468;42.128;24.750;2022-08-21T02:15:00;99012.50;;;21.03;82.88
32875;BME280;40468;42.128;24.750;2022-08-21T02:16:32;99004.72;;;21.01;82.55
32875;BME280;40468;42.128;24.750;2022-08-21T02:18:05;99021.84;;;21.15;82.12
32875;BME280;40468;42.128;24.750;2022-08-21T02:19:37;99025.69;;;21.21;81.63
32875;BME280;40468;42.128;24.750;2022-08-21T02:21:08;99020.91;;;21.24;81.88
32875;BME280;40468;42.128;24.750;2022-08-21T02:22:41;99030.19;;;21.28;82.18
32875;BME280;40468;42.128;24.750;2022-08-21T02:24:13;99023.91;;;21.29;81.97
32875;BME280;40468;42.128;24.750;2022-08-21T02:25:44;99026.09;;;21.34;81.85
32875;BME280;40468;42.128;24.750;2022-08-21T02:27:17;99034.44;;;21.39;81.09
32875;BME280;40468;42.128;24.750;2022-08-21T02:28:47;99028.66;;;21.44;81.33
32875;BME280;40468;42.128;24.750;2022-08-21T02:30:20;99041.28;;;21.50;81.19
32875;BME280;40468;42.128;24.750;2022-08-21T02:31:52;99038.47;;;21.51;81.65
32875;BME280;40468;42.128;24.750;2022-08-21T02:33:24;99035.66;;;21.53;81.51
32875;BME280;40468;42.128;24.750;2022-08-21T02:34:56;99039.16;;;21.53;81.55
32875;BME280;40468;42.128;24.750;2022-08-21T02:36:28;99042.47;;;21.55;81.92
32875;BME280;40468;42.128;24.750;2022-08-21T02:38:02;99049.75;;;21.53;81.80
32875;BME280;40468;42.128;24.750;2022-08-21T02:39:34;99055.56;;;21.57;81.18
32875;BME280;40468;42.128;24.750;2022-08-21T02:41:06;99056.22;;;21.59;81.03
32875;BME280;40468;42.128;24.750;2022-08-21T02:42:38;99055.91;;;21.62;80.66
32875;BME280;40468;42.128;24.750;2022-08-21T02:44:10;99059.09;;;21.66;80.70
32875;BME280;40468;42.128;24.750;2022-08-21T02:45:42;99061.41;;;21.69;81.09
32875;BME280;40468;42.128;24.750;2022-08-21T02:47:14;99059.75;;;21.68;80.80
32875;BME280;40468;42.128;24.750;2022-08-21T02:48:46;99054.97;;;21.71;80.54
32875;BME280;40468;42.128;24.750;2022-08-21T02:50:19;99052.84;;;21.75;80.56
32875;BME280;40468;42.128;24.750;2022-08-21T02:51:51;99048.03;;;21.78;80.17
32875;BME280;40468;42.128;24.750;2022-08-21T02:53:24;99053.03;;;21.81;80.15
32875;BME280;40468;42.128;24.750;2022-08-21T02:54:55;99043.09;;;21.84;80.20
32875;BME280;40468;42.128;24.750;2022-08-21T02:56:26;99049.91;;;21.86;79.97
32875;BME280;40468;42.128;24.750;2022-08-21T02:57:59;99041.94;;;21.86;79.86
32875;BME280;40468;42.128;24.750;2022-08-21T02:59:30;99044.44;;;21.88;79.65
32875;BME280;40468;42.128;24.750;2022-08-21T03:01:02;99046.06;;;21.89;80.22
32875;BME280;40468;42.128;24.750;2022-08-21T03:02:33;99046.25;;;21.87;79.96
32875;BME280;40468;42.128;24.750;2022-08-21T03:04:05;99041.63;;;21.89;79.54
32875;BME280;40468;42.128;24.750;2022-08-21T03:05:36;99040.63;;;21.90;79.61
32875;BME280;40468;42.128;24.750;2022-08-21T03:07:08;99042.28;;;21.91;79.82
32875;BME280;40468;42.128;24.750;2022-08-21T03:08:41;99037.84;;;21.92;80.20
32875;BME280;40468;42.128;24.750;2022-08-21T03:10:15;99047.75;;;21.90;80.13
32875;BME280;40468;42.128;24.750;2022-08-21T03:11:47;99019.06;;;21.77;80.44
32875;BME280;40468;42.128;24.750;2022-08-21T03:13:18;99052.88;;;21.91;80.21
32875;BME280;40468;42.128;24.750;2022-08-21T03:14:50;99065.00;;;21.94;81.18
32875;BME280;40468;42.128;24.750;2022-08-21T03:16:22;99063.81;;;21.88;81.33
32875;BME280;40468;42.128;24.750;2022-08-21T03:17:53;99063.97;;;21.87;81.46
32875;BME280;40468;42.128;24.750;2022-08-21T03:19:24;99064.13;;;21.85;81.37
32875;BME280;40468;42.128;24.750;2022-08-21T03:20:56;99059.00;;;21.84;81.15
32875;BME280;40468;42.128;24.750;2022-08-21T03:22:27;99062.31;;;21.86;80.76
32875;BME280;40468;42.128;24.750;2022-08-21T03:24:00;99058.69;;;21.87;81.47
32875;BME280;40468;42.128;24.750;2022-08-21T03:25:32;99056.84;;;21.87;80.78
32875;BME280;40468;42.128;24.750;2022-08-21T03:27:04;99060.31;;;21.88;81.56
32875;BME280;40468;42.128;24.750;2022-08-21T03:28:35;99059.00;;;21.84;81.42
32875;BME280;40468;42.128;24.750;2022-08-21T03:30:07;99059.16;;;21.82;81.37
32875;BME280;40468;42.128;24.750;2022-08-21T03:31:38;99065.28;;;21.83;81.05
32875;BME280;40468;42.128;24.750;2022-08-21T03:33:10;99066.28;;;21.81;80.58
32875;BME280;40468;42.128;24.750;2022-08-21T03:34:42;99062.63;;;21.83;80.80
32875;BME280;40468;42.128;24.750;2022-08-21T03:36:14;99055.66;;;21.81;80.55
32875;BME280;40468;42.128;24.750;2022-08-21T03:37:46;99056.50;;;21.82;80.43
32875;BME280;40468;42.128;24.750;2022-08-21T03:39:20;99059.81;;;21.84;80.66
32875;BME280;40468;42.128;24.750;2022-08-21T03:40:51;99060.16;;;21.81;80.63
32875;BME280;40468;42.128;24.750;2022-08-21T03:42:23;99060.16;;;21.81;80.50
32875;BME280;40468;42.128;24.750;2022-08-21T03:43:54;99061.28;;;21.78;80.74
32875;BME280;40468;42.128;24.750;2022-08-21T03:45:25;99065.56;;;21.71;81.47
32875;BME280;40468;42.128;24.750;2022-08-21T03:46:57;99060.41;;;21.70;80.87
32875;BME280;40468;42.128;24.750;2022-08-21T03:48:29;99066.41;;;21.72;80.73
32875;BME280;40468;42.128;24.750;2022-08-21T03:50:02;99059.59;;;21.69;80.84
32875;BME280;40468;42.128;24.750;2022-08-21T03:51:34;99059.59;;;21.69;81.06
32875;BME280;40468;42.128;24.750;2022-08-21T03:53:05;99069.19;;;21.70;80.76
32875;BME280;40468;42.128;24.750;2022-08-21T03:54:38;99066.41;;;21.72;80.88
32875;BME280;40468;42.128;24.750;2022-08-21T03:56:10;99073.84;;;21.68;81.01
32875;BME280;40468;42.128;24.750;2022-08-21T03:57:42;99075.63;;;21.68;81.18
32875;BME280;40468;42.128;24.750;2022-08-21T03:59:14;99071.34;;;21.67;80.96
32875;BME280;40468;42.128;24.750;2022-08-21T04:00:45;99077.31;;;21.69;80.46
32875;BME280;40468;42.128;24.750;2022-08-21T04:02:16;99078.16;;;21.69;80.25
32875;BME280;40468;42.128;24.750;2022-08-21T04:03:51;99072.03;;;21.69;79.70
32875;BME280;40468;42.128;24.750;2022-08-21T04:05:22;99076.50;;;21.68;79.58
32875;BME280;40468;42.128;24.750;2022-08-21T04:07:00;99076.50;;;21.68;79.39
32875;BME280;40468;42.128;24.750;2022-08-21T04:08:32;99073.84;;;21.68;79.37
32875;BME280;40468;42.128;24.750;2022-08-21T04:10:06;99072.84;;;21.69;79.33
32875;BME280;40468;42.128;24.750;2022-08-21T04:11:37;99071.69;;;21.72;79.29
32875;BME280;40468;42.128;24.750;2022-08-21T04:13:08;99077.50;;;21.75;78.83
32875;BME280;40468;42.128;24.750;2022-08-21T04:14:40;99074.84;;;21.75;79.82
32875;BME280;40468;42.128;24.750;2022-08-21T04:16:12;99074.81;;;21.67;81.46
32875;BME280;40468;42.128;24.750;2022-08-21T04:17:44;99074.09;;;21.57;82.04
32875;BME280;40468;42.128;24.750;2022-08-21T04:19:15;99078.84;;;21.45;82.54
32875;BME280;40468;42.128;24.750;2022-08-21T04:20:47;99071.25;;;21.32;83.20
32875;BME280;40468;42.128;24.750;2022-08-21T04:22:20;99067.06;;;21.22;82.98
32875;BME280;40468;42.128;24.750;2022-08-21T04:23:53;99079.00;;;21.26;83.28
32875;BME280;40468;42.128;24.750;2022-08-21T04:25:26;99078.63;;;21.21;82.96
32875;BME280;40468;42.128;24.750;2022-08-21T04:26:59;99079.13;;;21.16;83.30
32875;BME280;40468;42.128;24.750;2022-08-21T04:28:30;99086.03;;;21.09;83.91
32875;BME280;40468;42.128;24.750;2022-08-21T04:30:02;99079.84;;;21.00;84.21
32875;BME280;40468;42.128;24.750;2022-08-21T04:31:35;99080.28;;;20.96;84.87
32875;BME280;40468;42.128;24.750;2022-08-21T04:33:07;99075.44;;;20.91;85.03
32875;BME280;40468;42.128;24.750;2022-08-21T04:34:39;99069.78;;;20.86;85.43
32875;BME280;40468;42.128;24.750;2022-08-21T04:36:11;99071.31;;;20.88;84.86
32875;BME280;40468;42.128;24.750;2022-08-21T04:37:42;99058.59;;;20.92;84.63
32875;BME280;40468;42.128;24.750;2022-08-21T04:39:13;99062.75;;;20.95;83.91
32875;BME280;40468;42.128;24.750;2022-08-21T04:40:46;99064.09;;;20.99;83.83
32875;BME280;40468;42.128;24.750;2022-08-21T04:42:18;99067.56;;;20.99;83.86
32875;BME280;40468;42.128;24.750;2022-08-21T04:43:50;99072.19;;;20.97;83.60
32875;BME280;40468;42.128;24.750;2022-08-21T04:45:23;99066.59;;;21.00;84.08
32875;BME280;40468;42.128;24.750;2022-08-21T04:46:54;99057.50;;;21.03;83.44
32875;BME280;40468;42.128;24.750;2022-08-21T04:48:26;99052.75;;;21.06;83.32
32875;BME280;40468;42.128;24.750;2022-08-21T04:49:58;99054.09;;;21.10;83.37
32875;BME280;40468;42.128;24.750;2022-08-21T04:51:29;99055.41;;;21.14;83.30
32875;BME280;40468;42.128;24.750;2022-08-21T04:53:03;99051.94;;;21.14;83.43
32875;BME280;40468;42.128;24.750;2022-08-21T04:54:34;99049.00;;;21.17;83.34
32875;BME280;40468;42.128;24.750;2022-08-21T04:56:08;99053.16;;;21.20;83.21
32875;BME280;40468;42.128;24.750;2022-08-21T04:57:40;99042.41;;;21.21;83.18
32875;BME280;40468;42.128;24.750;2022-08-21T04:59:12;99035.97;;;21.24;83.34
32875;BME280;40468;42.128;24.750;2022-08-21T05:00:45;99040.97;;;21.27;82.77
32875;BME280;40468;42.128;24.750;2022-08-21T05:02:16;99043.44;;;21.28;83.00
32875;BME280;40468;42.128;24.750;2022-08-21T05:03:49;99051.25;;;21.30;82.71
32875;BME280;40468;42.128;24.750;2022-08-21T05:05:22;99046.59;;;21.32;81.96
32875;BME280;40468;42.128;24.750;2022-08-21T05:06:55;99054.22;;;21.35;81.74
32875;BME280;40468;42.128;24.750;2022-08-21T05:08:28;99050.66;;;21.36;81.64
32875;BME280;40468;42.128;24.750;2022-08-21T05:10:00;99046.00;;;21.38;81.49
32875;BME280;40468;42.128;24.750;2022-08-21T05:11:33;99044.34;;;21.37;81.12
32875;BME280;40468;42.128;24.750;2022-08-21T05:13:05;99040.88;;;21.37;80.78
32875;BME280;40468;42.128;24.750;2022-08-21T05:14:37;99035.69;;;21.35;80.58
32875;BME280;40468;42.128;24.750;2022-08-21T05:16:09;99036.56;;;21.35;80.55
32875;BME280;40468;42.128;24.750;2022-08-21T05:17:40;99038.22;;;21.37;80.59
32875;BME280;40468;42.128;24.750;2022-08-21T05:19:12;99032.75;;;21.38;80.50
32875;BME280;40468;42.128;24.750;2022-08-21T05:20:43;99028.16;;;21.40;80.34
32875;BME280;40468;42.128;24.750;2022-08-21T05:22:18;99026.84;;;21.44;80.77
32875;BME280;40468;42.128;24.750;2022-08-21T05:23:50;99023.22;;;21.45;80.88
32875;BME280;40468;42.128;24.750;2022-08-21T05:25:22;99025.69;;;21.47;80.61
32875;BME280;40468;42.128;24.750;2022-08-21T05:26:55;99028.19;;;21.48;80.22
32875;BME280;40468;42.128;24.750;2022-08-21T05:28:27;99024.41;;;21.51;80.49
32875;BME280;40468;42.128;24.750;2022-08-21T05:29:59;99026.75;;;21.54;80.54
32875;BME280;40468;42.128;24.750;2022-08-21T05:31:30;99022.94;;;21.56;80.64
32875;BME280;40468;42.128;24.750;2022-08-21T05:33:03;99030.22;;;21.54;81.95
32875;BME280;40468;42.128;24.750;2022-08-21T05:34:35;99032.81;;;21.46;82.80
32875;BME280;40468;42.128;24.750;2022-08-21T05:36:06;99028.16;;;21.40;82.97
32875;BME280;40468;42.128;24.750;2022-08-21T05:37:38;99029.97;;;21.40;83.10
32875;BME280;40468;42.128;24.750;2022-08-21T05:39:10;99041.00;;;21.35;83.74
32875;BME280;40468;42.128;24.750;2022-08-21T05:40:41;99042.31;;;21.31;83.92
32875;BME280;40468;42.128;24.750;2022-08-21T05:42:14;99038.97;;;21.29;83.37
32875;BME280;40468;42.128;24.750;2022-08-21T05:43:46;99039.78;;;21.29;83.59
32875;BME280;40468;42.128;24.750;2022-08-21T05:45:18;99038.78;;;21.22;83.89
32875;BME280;40468;42.128;24.750;2022-08-21T05:46:49;99038.09;;;21.20;84.40
32875;BME280;40468;42.128;24.750;2022-08-21T05:48:22;99041.03;;;21.17;84.37
32875;BME280;40468;42.128;24.750;2022-08-21T05:49:54;99047.47;;;21.14;84.72
32875;BME280;40468;42.128;24.750;2022-08-21T05:51:26;99039.19;;;21.09;85.26
32875;BME280;40468;42.128;24.750;2022-08-21T05:52:57;99044.81;;;21.06;85.11
32875;BME280;40468;42.128;24.750;2022-08-21T05:54:29;99039.94;;;21.02;85.45
32875;BME280;40468;42.128;24.750;2022-08-21T05:56:01;99048.06;;;21.00;85.55
32875;BME280;40468;42.128;24.750;2022-08-21T05:57:35;99050.03;;;20.98;85.74
32875;BME280;40468;42.128;24.750;2022-08-21T05:59:07;99049.19;;;20.98;85.94
32875;BME280;40468;42.128;24.750;2022-08-21T06:00:38;99051.69;;;20.99;85.85
32875;BME280;40468;42.128;24.750;2022-08-21T06:02:10;99047.22;;;21.00;86.07
32875;BME280;40468;42.128;24.750;2022-08-21T06:03:42;99053.97;;;20.94;86.29
32875;BME280;40468;42.128;24.750;2022-08-21T06:05:14;99055.13;;;20.92;86.18
32875;BME280;40468;42.128;24.750;2022-08-21T06:06:45;99058.19;;;20.87;86.40
32875;BME280;40468;42.128;24.750;2022-08-21T06:08:18;99055.72;;;20.85;86.61
32875;BME280;40468;42.128;24.750;2022-08-21T06:09:50;99062.16;;;20.83;86.79
32875;BME280;40468;42.128;24.750;2022-08-21T06:11:22;99062.16;;;20.83;86.79
32875;BME280;40468;42.128;24.750;2022-08-21T06:12:54;99063.97;;;20.82;86.94
32875;BME280;40468;42.128;24.750;2022-08-21T06:14:26;99064.25;;;20.79;86.60
32875;BME280;40468;42.128;24.750;2022-08-21T06:16:02;99067.06;;;20.78;86.24
32875;BME280;40468;42.128;24.750;2022-08-21T06:17:33;99057.63;;;20.75;86.15
32875;BME280;40468;42.128;24.750;2022-08-21T06:19:04;99058.44;;;20.76;85.85
32875;BME280;40468;42.128;24.750;2022-08-21T06:20:36;99062.91;;;20.75;86.59
32875;BME280;40468;42.128;24.750;2022-08-21T06:22:08;99063.91;;;20.74;86.74
32875;BME280;40468;42.128;24.750;2022-08-21T06:23:40;99064.03;;;20.73;86.75
32875;BME280;40468;42.128;24.750;2022-08-21T06:25:12;99065.16;;;20.70;86.73
32875;BME280;40468;42.128;24.750;2022-08-21T06:26:44;99062.06;;;20.75;86.54
32875;BME280;40468;42.128;24.750;2022-08-21T06:28:18;99061.78;;;20.78;86.54
32875;BME280;40468;42.128;24.750;2022-08-21T06:29:48;99057.81;;;20.82;85.86
32875;BME280;40468;42.128;24.750;2022-08-21T06:31:21;99056.56;;;20.86;85.96
32875;BME280;40468;42.128;24.750;2022-08-21T06:32:53;99053.59;;;20.89;85.56
32875;BME280;40468;42.128;24.750;2022-08-21T06:34:24;99058.72;;;20.90;85.61
32875;BME280;40468;42.128;24.750;2022-08-21T06:35:56;99056.91;;;20.91;85.60
32875;BME280;40468;42.128;24.750;2022-08-21T06:37:28;99057.59;;;20.93;85.55
32875;BME280;40468;42.128;24.750;2022-08-21T06:38:59;99054.31;;;20.99;85.15
32875;BME280;40468;42.128;24.750;2022-08-21T06:40:31;99055.38;;;21.06;85.02
32875;BME280;40468;42.128;24.750;2022-08-21T06:42:03;99057.72;;;21.09;84.96
32875;BME280;40468;42.128;24.750;2022-08-21T06:43:36;99056.22;;;21.07;84.78
32875;BME280;40468;42.128;24.750;2022-08-21T06:45:08;99055.38;;;21.06;84.59
32875;BME280;40468;42.128;24.750;2022-08-21T06:46:40;99050.09;;;21.06;84.56
32875;BME280;40468;42.128;24.750;2022-08-21T06:48:10;99050.59;;;21.10;84.43
32875;BME280;40468;42.128;24.750;2022-08-21T06:49:42;99052.63;;;21.16;83.99
32875;BME280;40468;42.128;24.750;2022-08-21T06:51:14;99042.09;;;21.24;84.09
32875;BME280;40468;42.128;24.750;2022-08-21T06:52:45;99035.34;;;21.30;85.51
32875;BME280;40468;42.128;24.750;2022-08-21T06:54:16;99027.09;;;21.33;85.02
32875;BME280;40468;42.128;24.750;2022-08-21T06:55:48;99022.34;;;21.37;84.85
32875;BME280;40468;42.128;24.750;2022-08-21T06:57:20;99030.47;;;21.43;83.99
32875;BME280;40468;42.128;24.750;2022-08-21T06:58:53;99033.19;;;21.51;83.99
32875;BME280;40468;42.128;24.750;2022-08-21T07:00:25;99028.38;;;21.55;83.54
32875;BME280;40468;42.128;24.750;2022-08-21T07:01:55;99032.91;;;21.63;82.73
32875;BME280;40468;42.128;24.750;2022-08-21T07:03:28;99027.94;;;21.68;82.32
32875;BME280;40468;42.128;24.750;2022-08-21T07:05:00;99027.63;;;21.71;82.18
32875;BME280;40468;42.128;24.750;2022-08-21T07:06:31;99032.63;;;21.82;81.93
32875;BME280;40468;42.128;24.750;2022-08-21T07:08:03;99027.53;;;21.89;81.77
32875;BME280;40468;42.128;24.750;2022-08-21T07:09:35;99019.94;;;21.94;82.41
32875;BME280;40468;42.128;24.750;2022-08-21T07:11:08;99026.22;;;21.93;81.71
32875;BME280;40468;42.128;24.750;2022-08-21T07:12:41;99030.38;;;21.95;81.26
32875;BME280;40468;42.128;24.750;2022-08-21T07:14:14;99018.97;;;21.95;81.00
32875;BME280;40468;42.128;24.750;2022-08-21T07:15:46;99020.44;;;21.97;80.68
32875;BME280;40468;42.128;24.750;2022-08-21T07:17:17;99026.75;;;22.04;80.56
32875;BME280;40468;42.128;24.750;2022-08-21T07:18:49;99024.28;;;22.11;80.10
32875;BME280;40468;42.128;24.750;2022-08-21T07:20:21;99025.50;;;22.17;80.20
32875;BME280;40468;42.128;24.750;2022-08-21T07:21:53;99033.31;;;22.18;80.21
32875;BME280;40468;42.128;24.750;2022-08-21T07:23:27;99026.50;;;22.24;80.13
32875;BME280;40468;42.128;24.750;2022-08-21T07:24:59;99026.84;;;22.29;79.90
32875;BME280;40468;42.128;24.750;2022-08-21T07:26:31;99023.38;;;22.37;79.88
32875;BME280;40468;42.128;24.750;2022-08-21T07:28:03;99022.72;;;22.43;79.95
32875;BME280;40468;42.128;24.750;2022-08-21T07:29:36;99024.53;;;22.51;79.87
32875;BME280;40468;42.128;24.750;2022-08-21T07:31:08;99025.22;;;22.53;79.38
32875;BME280;40468;42.128;24.750;2022-08-21T07:32:40;99025.22;;;22.53;78.63
32875;BME280;40468;42.128;24.750;2022-08-21T07:34:12;99023.38;;;22.53;78.37
32875;BME280;40468;42.128;24.750;2022-08-21T07:35:44;99024.88;;;22.56;78.04
32875;BME280;40468;42.128;24.750;2022-08-21T07:37:16;99021.06;;;22.58;77.85
32875;BME280;40468;42.128;24.750;2022-08-21T07:38:47;99019.91;;;22.61;77.96
32875;BME280;40468;42.128;24.750;2022-08-21T07:40:19;99016.09;;;22.63;77.96
32875;BME280;40468;42.128;24.750;2022-08-21T07:41:51;99014.94;;;22.66;77.75
32875;BME280;40468;42.128;24.750;2022-08-21T07:43:22;99014.78;;;22.67;77.75
32875;BME280;40468;42.128;24.750;2022-08-21T07:44:57;99007.28;;;22.71;77.27
32875;BME280;40468;42.128;24.750;2022-08-21T07:46:29;99006.00;;;22.75;77.10
32875;BME280;40468;42.128;24.750;2022-08-21T07:48:00;99013.44;;;22.80;77.41
32875;BME280;40468;42.128;24.750;2022-08-21T07:49:32;99006.97;;;22.82;77.00
32875;BME280;40468;42.128;24.750;2022-08-21T07:51:05;99015.41;;;22.86;76.87
32875;BME280;40468;42.128;24.750;2022-08-21T07:52:38;99019.41;;;22.90;76.69
32875;BME280;40468;42.128;24.750;2022-08-21T07:54:09;99016.28;;;22.94;76.61
32875;BME280;40468;42.128;24.750;2022-08-21T07:55:41;99017.44;;;23.00;76.41
32875;BME280;40468;42.128;24.750;2022-08-21T07:57:13;99015.78;;;22.99;76.30
32875;BME280;40468;42.128;24.750;2022-08-21T07:58:45;99019.75;;;22.95;76.01
32875;BME280;40468;42.128;24.750;2022-08-21T08:00:19;99018.06;;;22.94;76.15
32875;BME280;40468;42.128;24.750;2022-08-21T08:01:51;99020.25;;;22.90;76.04